createdAt,value
2023-10-03T00:00:26.121Z,18.80
2023-10-03T00:03:14.821Z,18.80
2023-10-03T00:06:01.376Z,18.80
2023-10-03T00:08:47.168Z,18.70
2023-10-03T00:11:34.708Z,18.70
2023-10-03T00:14:20.699Z,18.60
2023-10-03T00:17:06.377Z,18.60
2023-10-03T00:19:52.207Z,18.60
2023-10-03T00:22:39.988Z,18.50
2023-10-03T00:25:25.888Z,18.50
2023-10-03T00:28:12.354Z,18.50
2023-10-03T00:30:59.582Z,18.50
2023-10-03T00:33:45.686Z,18.60
2023-10-03T00:36:32.972Z,18.60
2023-10-03T00:39:18.713Z,18.50
2023-10-03T00:42:06.805Z,18.50
2023-10-03T00:44:54.104Z,18.40
2023-10-03T00:47:40.182Z,18.50
2023-10-03T00:50:28.330Z,18.40
2023-10-03T00:53:15.193Z,18.50
2023-10-03T00:56:03.454Z,18.50
2023-10-03T00:58:49.444Z,18.40
2023-10-03T01:01:37.502Z,18.40
2023-10-03T01:04:32.190Z,18.40
2023-10-03T01:07:17.892Z,18.40
2023-10-03T01:10:05.899Z,18.40
2023-10-03T01:12:55.641Z,18.40
2023-10-03T01:15:41.557Z,18.40
2023-10-03T01:18:32.820Z,18.40
2023-10-03T01:21:19.177Z,18.40
2023-10-03T01:24:10.003Z,18.40
2023-10-03T01:26:56.494Z,18.40
2023-10-03T01:29:42.174Z,18.40
2023-10-03T01:32:32.884Z,18.40
2023-10-03T01:35:18.939Z,18.30
2023-10-03T01:40:59.833Z,18.30
2023-10-03T01:43:45.936Z,18.30
2023-10-03T01:46:31.906Z,18.30
2023-10-03T01:49:18.094Z,18.20
2023-10-03T01:52:04.449Z,18.20
2023-10-03T01:54:50.745Z,18.10
2023-10-03T01:57:36.403Z,18.10
2023-10-03T02:00:29.456Z,18.00
2023-10-03T02:03:15.373Z,18.10
2023-10-03T02:06:01.554Z,18.10
2023-10-03T02:08:48.396Z,18.00
2023-10-03T02:11:36.021Z,18.00
2023-10-03T02:14:21.821Z,18.00
2023-10-03T02:17:07.848Z,17.90
2023-10-03T02:19:54.118Z,17.90
2023-10-03T02:22:40.186Z,17.90
2023-10-03T02:25:29.210Z,17.80
2023-10-03T02:28:16.981Z,17.70
2023-10-03T02:31:08.580Z,17.70
2023-10-03T02:33:55.118Z,17.60
2023-10-03T02:36:41.389Z,17.60
2023-10-03T02:39:36.476Z,17.50
2023-10-03T02:42:22.480Z,17.50
2023-10-03T02:45:10.167Z,17.50
2023-10-03T02:47:57.698Z,17.50
2023-10-03T02:50:48.427Z,17.50
2023-10-03T02:53:36.470Z,17.50
2023-10-03T02:56:24.001Z,17.40
2023-10-03T02:59:10.112Z,17.40
2023-10-03T03:01:57.827Z,17.30
2023-10-03T03:04:45.006Z,17.30
2023-10-03T03:07:33.459Z,17.30
2023-10-03T03:10:19.414Z,17.30
2023-10-03T03:13:08.015Z,17.40
2023-10-03T03:16:01.146Z,17.40
2023-10-03T03:18:51.098Z,17.50
2023-10-03T03:21:36.756Z,17.50
2023-10-03T03:24:34.838Z,17.50
2023-10-03T03:27:24.318Z,17.50
2023-10-03T03:30:31.829Z,17.50
2023-10-03T03:33:21.485Z,17.40
2023-10-03T03:36:09.156Z,17.40
2023-10-03T03:41:43.555Z,17.40
2023-10-03T03:44:29.563Z,17.40
2023-10-03T03:47:15.084Z,17.40
2023-10-03T03:50:03.078Z,17.40
2023-10-03T03:52:50.276Z,17.40
2023-10-03T03:55:36.765Z,17.30
2023-10-03T03:58:22.563Z,17.30
2023-10-03T04:01:14.329Z,17.40
2023-10-03T04:04:01.240Z,17.30
2023-10-03T04:09:33.167Z,17.20
2023-10-03T04:12:20.132Z,17.30
2023-10-03T04:15:09.177Z,17.20
2023-10-03T04:17:56.922Z,17.20
2023-10-03T04:20:47.837Z,17.10
2023-10-03T04:23:33.947Z,17.00
2023-10-03T04:26:19.718Z,17.00
2023-10-03T04:29:05.775Z,17.00
2023-10-03T04:31:51.508Z,16.90
2023-10-03T04:34:37.119Z,16.90
2023-10-03T04:37:22.841Z,16.80
2023-10-03T04:40:18.034Z,16.80
2023-10-03T04:43:09.953Z,16.80
2023-10-03T04:45:58.075Z,16.80
2023-10-03T04:48:43.786Z,16.70
2023-10-03T04:51:29.812Z,16.60
2023-10-03T04:54:15.533Z,16.60
2023-10-03T04:57:01.565Z,16.60
2023-10-03T04:59:47.579Z,16.50
2023-10-03T05:02:33.900Z,16.50
2023-10-03T05:05:21.646Z,16.50
2023-10-03T05:08:09.748Z,16.50
2023-10-03T05:10:57.882Z,16.50
2023-10-03T05:13:44.642Z,16.40
2023-10-03T05:16:31.057Z,16.40
2023-10-03T05:22:04.197Z,16.40
2023-10-03T05:24:51.079Z,16.40
2023-10-03T05:27:37.036Z,16.40
2023-10-03T05:30:24.313Z,16.40
2023-10-03T05:33:10.303Z,16.40
2023-10-03T05:35:56.555Z,16.50
2023-10-03T05:38:43.928Z,16.50
2023-10-03T05:41:30.236Z,16.70
2023-10-03T05:44:19.669Z,16.80
2023-10-03T05:47:06.807Z,17.00
2023-10-03T05:49:52.569Z,17.20
2023-10-03T05:52:38.600Z,17.70
2023-10-03T05:55:24.329Z,18.30
2023-10-03T05:58:13.774Z,18.90
2023-10-03T06:01:00.521Z,19.50
2023-10-03T06:03:47.462Z,20.00
2023-10-03T06:06:34.187Z,20.30
2023-10-03T06:09:21.870Z,20.50
2023-10-03T06:12:07.989Z,20.80
2023-10-03T06:14:53.813Z,21.10
2023-10-03T06:17:41.395Z,21.30
2023-10-03T06:20:27.842Z,21.40
2023-10-03T06:23:13.550Z,21.50
2023-10-03T06:25:59.640Z,21.70
2023-10-03T06:28:52.157Z,21.70
2023-10-03T06:31:37.754Z,21.90
2023-10-03T06:34:26.484Z,21.90
2023-10-03T06:37:12.472Z,21.90
2023-10-03T06:39:58.226Z,21.80
2023-10-03T06:42:44.417Z,21.70
2023-10-03T06:45:30.278Z,21.80
2023-10-03T06:48:16.411Z,21.80
2023-10-03T06:51:06.391Z,21.90
2023-10-03T06:53:53.548Z,22.00
2023-10-03T06:56:39.390Z,22.10
2023-10-03T06:59:25.211Z,22.20
2023-10-03T07:02:11.194Z,22.20
2023-10-03T07:04:57.204Z,22.10
2023-10-03T07:07:43.313Z,22.00
2023-10-03T07:10:29.677Z,22.10
2023-10-03T07:13:15.294Z,22.30
2023-10-03T07:16:01.078Z,22.50
2023-10-03T07:18:46.934Z,22.60
2023-10-03T07:21:36.211Z,22.60
2023-10-03T07:24:22.408Z,22.70
2023-10-03T07:27:09.206Z,22.70
2023-10-03T07:29:55.205Z,22.70
2023-10-03T07:32:41.365Z,22.90
2023-10-03T07:35:27.535Z,23.10
2023-10-03T07:38:14.945Z,23.00
2023-10-03T07:41:14.751Z,23.10
2023-10-03T07:44:00.671Z,23.20
2023-10-03T07:46:47.405Z,23.30
2023-10-03T07:49:33.415Z,23.30
2023-10-03T07:52:23.117Z,23.40
2023-10-03T07:55:09.012Z,23.60
2023-10-03T07:57:56.200Z,23.70
2023-10-03T08:00:47.335Z,23.80
2023-10-03T08:03:35.129Z,23.90
2023-10-03T08:06:26.281Z,24.00
2023-10-03T08:09:15.484Z,24.10
2023-10-03T08:12:02.102Z,24.30
2023-10-03T08:14:53.179Z,24.40
2023-10-03T08:17:39.465Z,24.50
2023-10-03T08:26:04.099Z,24.50
2023-10-03T08:29:00.947Z,24.60
2023-10-03T08:31:47.381Z,24.60
2023-10-03T08:34:33.458Z,24.70
2023-10-03T08:37:23.470Z,24.60
2023-10-03T08:40:21.555Z,24.50
2023-10-03T08:43:12.188Z,24.60
2023-10-03T08:45:58.724Z,24.50
2023-10-03T08:48:46.380Z,24.40
2023-10-03T08:51:34.959Z,24.60
2023-10-03T08:54:21.144Z,24.60
2023-10-03T08:57:11.131Z,24.60
2023-10-03T08:59:57.319Z,24.60
2023-10-03T09:02:50.776Z,24.80
2023-10-03T09:05:42.479Z,24.70
2023-10-03T09:08:28.379Z,24.80
2023-10-03T09:11:15.141Z,24.70
2023-10-03T09:14:01.240Z,24.70
2023-10-03T09:16:52.827Z,24.80
2023-10-03T09:19:47.295Z,24.80
2023-10-03T09:22:33.599Z,24.80
2023-10-03T09:25:23.002Z,24.80
2023-10-03T09:28:11.321Z,24.70
2023-10-03T09:30:57.454Z,24.70
2023-10-03T09:33:43.589Z,24.80
2023-10-03T09:36:29.828Z,24.90
2023-10-03T09:39:22.555Z,25.00
2023-10-03T09:42:17.109Z,25.00
2023-10-03T09:45:08.243Z,25.00
2023-10-03T09:47:59.763Z,25.00
2023-10-03T09:50:53.323Z,25.00
2023-10-03T09:53:40.867Z,25.10
2023-10-03T09:56:27.263Z,25.20
2023-10-03T09:59:19.271Z,25.30
2023-10-03T10:02:06.961Z,25.40
2023-10-03T10:04:53.257Z,25.50
2023-10-03T10:08:10.061Z,25.60
2023-10-03T10:11:11.860Z,25.70
2023-10-03T10:14:17.659Z,25.70
2023-10-03T10:17:07.394Z,25.80
2023-10-03T10:20:12.690Z,25.80
2023-10-03T10:22:59.675Z,25.90
2023-10-03T10:25:53.055Z,25.90
2023-10-03T10:28:43.688Z,26.00
2023-10-03T10:31:38.423Z,25.90
2023-10-03T10:34:24.134Z,26.00
2023-10-03T10:37:13.193Z,26.00
2023-10-03T10:40:06.133Z,26.10
2023-10-03T10:43:09.813Z,26.10
2023-10-03T10:46:48.691Z,26.10
2023-10-03T10:49:41.384Z,26.10
2023-10-03T10:52:27.492Z,26.20
2023-10-03T10:55:16.832Z,26.20
2023-10-03T10:58:09.703Z,26.20
2023-10-03T11:00:59.672Z,26.20
2023-10-03T11:03:47.163Z,26.30
2023-10-03T11:06:33.568Z,26.30
2023-10-03T11:09:22.532Z,26.40
2023-10-03T11:12:08.708Z,26.30
2023-10-03T11:14:56.292Z,26.30
2023-10-03T11:17:49.932Z,26.30
2023-10-03T11:20:35.947Z,26.20
2023-10-03T11:23:24.344Z,26.30
2023-10-03T11:26:11.085Z,26.30
2023-10-03T11:28:56.810Z,26.40
2023-10-03T11:31:44.091Z,26.40
2023-10-03T11:34:35.791Z,26.60
2023-10-03T11:37:38.338Z,26.60
2023-10-03T11:40:29.886Z,26.70
2023-10-03T11:43:21.872Z,26.70
2023-10-03T11:46:09.945Z,26.80
2023-10-03T11:49:02.558Z,26.80
2023-10-03T11:51:50.111Z,26.80
2023-10-03T11:54:35.730Z,26.80
2023-10-03T11:57:21.405Z,26.80
2023-10-03T12:00:16.174Z,26.80
2023-10-03T12:03:05.239Z,26.80
2023-10-03T12:05:55.602Z,26.80
2023-10-03T12:08:43.389Z,26.90
2023-10-03T12:11:30.816Z,26.90
2023-10-03T12:14:16.697Z,26.90
2023-10-03T12:17:02.960Z,26.90
2023-10-03T12:19:49.199Z,26.90
2023-10-03T12:22:35.140Z,27.00
2023-10-03T12:25:24.955Z,27.00
2023-10-03T12:28:11.519Z,27.00
2023-10-03T12:30:57.503Z,27.00
2023-10-03T12:33:43.579Z,27.00
2023-10-03T12:36:31.133Z,27.10
2023-10-03T12:39:19.626Z,27.10
2023-10-03T12:42:07.236Z,27.10
2023-10-03T12:44:54.024Z,27.10
2023-10-03T12:47:41.184Z,27.10
2023-10-03T12:50:29.047Z,27.10
2023-10-03T12:53:15.089Z,27.10
2023-10-03T12:56:01.116Z,27.10
2023-10-03T12:58:47.041Z,27.10
2023-10-03T13:01:32.989Z,27.10
2023-10-03T13:04:20.316Z,27.20
2023-10-03T13:07:06.073Z,27.20
2023-10-03T13:09:52.574Z,27.10
2023-10-03T13:12:38.338Z,27.10
2023-10-03T13:15:24.495Z,27.10
2023-10-03T13:18:14.982Z,27.10
2023-10-03T13:21:00.854Z,27.20
2023-10-03T13:23:47.942Z,27.10
2023-10-03T13:26:33.884Z,27.20
2023-10-03T13:29:20.967Z,27.20
2023-10-03T13:32:06.857Z,27.20
2023-10-03T13:34:52.762Z,27.20
2023-10-03T13:37:38.420Z,27.30
2023-10-03T13:40:26.549Z,27.20
2023-10-03T13:43:20.087Z,27.20
2023-10-03T13:46:07.037Z,27.20
2023-10-03T13:48:54.313Z,27.20
2023-10-03T13:51:40.049Z,27.20
2023-10-03T13:54:26.087Z,27.20
2023-10-03T13:57:12.734Z,27.20
2023-10-03T13:59:58.751Z,27.20
2023-10-03T14:02:46.930Z,27.20
2023-10-03T14:05:35.872Z,27.20
2023-10-03T14:08:21.878Z,27.20
2023-10-03T14:11:08.116Z,27.20
2023-10-03T14:13:56.815Z,27.30
2023-10-03T14:16:45.154Z,27.20
2023-10-03T14:19:32.117Z,27.20
2023-10-03T14:22:20.018Z,27.30
2023-10-03T14:25:06.224Z,27.30
2023-10-03T14:27:52.044Z,27.30
2023-10-03T14:30:40.451Z,27.30
2023-10-03T14:33:26.333Z,27.30
2023-10-03T14:36:16.301Z,27.20
2023-10-03T14:39:02.518Z,27.20
2023-10-03T14:41:49.423Z,27.20
2023-10-03T14:44:40.603Z,27.20
2023-10-03T14:47:29.155Z,27.20
2023-10-03T14:50:14.781Z,27.30
2023-10-03T14:53:02.080Z,27.20
2023-10-03T14:55:47.970Z,27.10
2023-10-03T14:58:39.570Z,27.10
2023-10-03T15:01:25.182Z,27.10
2023-10-03T15:04:11.376Z,27.10
2023-10-03T15:06:58.939Z,27.00
2023-10-03T15:09:45.111Z,27.00
2023-10-03T15:12:31.347Z,26.90
2023-10-03T15:15:17.353Z,26.90
2023-10-03T15:18:05.208Z,27.00
2023-10-03T15:20:52.069Z,26.90
2023-10-03T15:23:40.125Z,26.90
2023-10-03T15:26:26.084Z,26.90
2023-10-03T15:29:12.856Z,26.90
2023-10-03T15:31:58.987Z,26.90
2023-10-03T15:34:44.849Z,26.80
2023-10-03T15:37:32.611Z,26.80
2023-10-03T15:40:20.940Z,26.70
2023-10-03T15:43:06.633Z,26.70
2023-10-03T15:45:52.831Z,26.70
2023-10-03T15:48:39.346Z,26.60
2023-10-03T15:51:25.386Z,26.60
2023-10-03T15:54:12.723Z,26.60
2023-10-03T15:56:59.084Z,26.60
2023-10-03T15:59:45.428Z,26.50
2023-10-03T16:07:26.609Z,26.40
2023-10-03T16:10:13.585Z,26.30
2023-10-03T16:12:59.522Z,26.30
2023-10-03T16:15:46.876Z,26.20
2023-10-03T16:18:33.868Z,26.10
2023-10-03T16:21:19.652Z,26.00
2023-10-03T16:24:05.873Z,26.00
2023-10-03T16:26:51.730Z,26.00
2023-10-03T16:29:37.431Z,25.90
2023-10-03T16:32:24.125Z,25.90
2023-10-03T16:35:16.228Z,25.80
2023-10-03T16:38:02.397Z,25.80
2023-10-03T16:40:48.271Z,25.70
2023-10-03T16:43:34.217Z,25.70
2023-10-03T16:46:20.560Z,25.60
2023-10-03T16:49:07.850Z,25.50
2023-10-03T16:51:53.473Z,25.40
2023-10-03T16:54:39.522Z,25.30
2023-10-03T16:57:33.360Z,25.20
2023-10-03T17:00:20.736Z,25.10
2023-10-03T17:03:06.853Z,25.00
2023-10-03T17:05:52.771Z,24.90
2023-10-03T17:08:38.912Z,24.80
2023-10-03T17:11:26.988Z,24.80
2023-10-03T17:14:12.858Z,24.70
2023-10-03T17:16:58.980Z,24.60
2023-10-03T17:19:44.649Z,24.50
2023-10-03T17:22:30.368Z,24.40
2023-10-03T17:25:18.105Z,24.30
2023-10-03T17:28:06.434Z,24.20
2023-10-03T17:30:52.454Z,24.20
2023-10-03T17:33:38.400Z,24.10
2023-10-03T17:36:24.800Z,24.00
2023-10-03T17:39:12.238Z,24.00
2023-10-03T17:41:58.762Z,23.90
2023-10-03T17:44:45.330Z,23.90
2023-10-03T17:47:32.367Z,23.70
2023-10-03T17:50:18.630Z,23.70
2023-10-03T17:53:04.488Z,23.60
2023-10-03T17:55:52.497Z,23.50
2023-10-03T17:58:38.411Z,23.40
2023-10-03T18:01:26.351Z,23.40
2023-10-03T18:04:12.706Z,23.30
2023-10-03T18:06:59.860Z,23.30
2023-10-03T18:09:47.111Z,23.20
2023-10-03T18:12:32.603Z,23.10
2023-10-03T18:15:22.181Z,23.10
2023-10-03T18:18:09.422Z,23.10
2023-10-03T18:20:58.674Z,23.10
2023-10-03T18:23:46.974Z,23.00
2023-10-03T18:26:32.755Z,23.00
2023-10-03T18:29:18.625Z,23.10
2023-10-03T18:32:06.490Z,23.00
2023-10-03T18:34:52.517Z,23.00
2023-10-03T18:37:39.137Z,23.00
2023-10-03T18:40:24.949Z,23.00
2023-10-03T18:43:11.209Z,22.90
2023-10-03T18:45:58.807Z,22.90
2023-10-03T18:48:45.211Z,22.90
2023-10-03T18:51:31.112Z,22.80
2023-10-03T18:54:18.370Z,22.80
2023-10-03T18:57:06.960Z,22.70
2023-10-03T18:59:52.944Z,22.70
2023-10-03T19:02:39.200Z,22.60
2023-10-03T19:05:24.799Z,22.60
2023-10-03T19:08:10.612Z,22.50
2023-10-03T19:10:56.262Z,22.50
2023-10-03T19:13:42.356Z,22.50
2023-10-03T19:16:28.639Z,22.40
2023-10-03T19:19:14.687Z,22.40
2023-10-03T19:22:00.673Z,22.30
2023-10-03T19:24:51.827Z,22.30
2023-10-03T19:27:41.742Z,22.20
2023-10-03T19:30:27.860Z,22.20
2023-10-03T19:33:13.670Z,22.20
2023-10-03T19:35:59.634Z,22.20
2023-10-03T19:38:45.676Z,22.20
2023-10-03T19:41:31.612Z,22.20
2023-10-03T19:44:17.795Z,22.20
2023-10-03T19:47:05.288Z,22.20
2023-10-03T19:49:52.010Z,22.10
2023-10-03T19:52:37.772Z,22.10
2023-10-03T19:55:24.251Z,22.00
2023-10-03T19:58:10.890Z,22.00
2023-10-03T20:00:57.023Z,22.00
2023-10-03T20:03:45.893Z,21.90
2023-10-03T20:06:32.050Z,21.90
2023-10-03T20:09:18.244Z,21.80
2023-10-03T20:12:07.292Z,21.80
2023-10-03T20:14:55.726Z,21.80
2023-10-03T20:17:41.836Z,21.70
2023-10-03T20:20:30.311Z,21.70
2023-10-03T20:23:16.412Z,21.60
2023-10-03T20:26:03.099Z,21.60
2023-10-03T20:28:51.026Z,21.60
2023-10-03T20:31:38.589Z,21.60
2023-10-03T20:34:24.622Z,21.60
2023-10-03T20:37:12.288Z,21.50
2023-10-03T20:39:59.901Z,21.50
2023-10-03T20:42:49.646Z,21.50
2023-10-03T20:45:38.622Z,21.50
2023-10-03T20:48:24.644Z,21.40
2023-10-03T20:51:24.111Z,21.40
2023-10-03T20:54:09.818Z,21.40
2023-10-03T20:56:55.355Z,21.30
2023-10-03T20:59:41.317Z,21.30
2023-10-03T21:02:28.830Z,21.20
2023-10-03T21:05:15.861Z,21.20
2023-10-03T21:08:03.337Z,21.20
2023-10-03T21:10:49.394Z,21.20
2023-10-03T21:13:35.663Z,21.10
2023-10-03T21:16:21.940Z,21.10
2023-10-03T21:19:07.578Z,21.10
2023-10-03T21:21:53.298Z,21.10
2023-10-03T21:24:39.100Z,21.00
2023-10-03T21:27:25.548Z,21.00
2023-10-03T21:30:13.122Z,21.00
2023-10-03T21:32:59.937Z,20.90
2023-10-03T21:35:45.465Z,21.00
2023-10-03T21:38:31.189Z,20.90
2023-10-03T21:41:17.450Z,20.90
2023-10-03T21:44:03.160Z,20.90
2023-10-03T21:46:49.221Z,20.90
2023-10-03T21:49:35.990Z,20.80
2023-10-03T21:52:21.570Z,20.80
2023-10-03T21:55:09.255Z,20.80
2023-10-03T21:57:55.402Z,20.80
2023-10-03T22:00:47.025Z,20.70
2023-10-03T22:03:38.049Z,20.70
2023-10-03T22:06:24.241Z,20.60
2023-10-03T22:09:11.422Z,20.50
2023-10-03T22:11:57.187Z,20.40
2023-10-03T22:14:43.264Z,20.40
2023-10-03T22:17:29.380Z,20.40
2023-10-03T22:20:15.262Z,20.40
2023-10-03T22:23:01.057Z,20.40
2023-10-03T22:25:49.163Z,20.30
2023-10-03T22:28:35.140Z,20.30
2023-10-03T22:31:21.916Z,20.20
2023-10-03T22:34:07.674Z,20.20
2023-10-03T22:36:53.469Z,20.20
2023-10-03T22:39:39.480Z,20.10
2023-10-03T22:42:25.439Z,20.10
2023-10-03T22:45:11.502Z,20.00
2023-10-03T22:47:57.658Z,19.90
2023-10-03T22:50:43.558Z,19.90
2023-10-03T22:53:29.266Z,19.90
2023-10-03T22:56:17.509Z,19.80
2023-10-03T22:59:04.438Z,19.70
2023-10-03T23:01:50.437Z,19.70
2023-10-03T23:04:37.255Z,19.60
2023-10-03T23:07:22.972Z,19.50
2023-10-03T23:10:10.799Z,19.40
2023-10-03T23:12:56.941Z,19.40
2023-10-03T23:15:42.807Z,19.40
2023-10-03T23:18:29.413Z,19.50
2023-10-03T23:21:15.113Z,19.50
2023-10-03T23:24:01.026Z,19.50
2023-10-03T23:26:47.884Z,19.50
2023-10-03T23:29:33.742Z,19.50
2023-10-03T23:32:19.346Z,19.50
2023-10-03T23:35:05.710Z,19.50
2023-10-03T23:37:52.338Z,19.40
2023-10-03T23:40:38.275Z,19.40
2023-10-03T23:43:24.037Z,19.30
2023-10-03T23:46:10.912Z,19.30
2023-10-03T23:48:56.723Z,19.20
2023-10-03T23:51:42.582Z,19.20
2023-10-03T23:54:28.640Z,19.20
2023-10-03T23:57:20.160Z,19.30
